Time;durP1;ratioP1;P1;durP2;ratioP2;P2;SDS_P1;SDS_P2;PMS_P1;PMS_P2;Temp;Humidity;BMP_temperature;BMP_pressure;BME280_temperature;BME280_humidity;BME280_pressure;Samples;Min_cycle;Max_cycle;Signal;HPM_P1;HPM_P2
2023/05/01 00:00:03;;;;;;;18.75;8.98;;;7.70;99.90;;;;;;4986015;28;20042;-70
2023/05/01 00:02:29;;;;;;;16.58;9.10;;;7.70;99.90;;;;;;4985625;28;20435;-73
2023/05/01 00:04:55;;;;;;;15.98;8.40;;;7.70;99.90;;;;;;4988095;28;20034;-70
2023/05/01 00:07:21;;;;;;;21.27;9.10;;;7.70;99.90;;;;;;4986890;28;20058;-71
2023/05/01 00:09:47;;;;;;;16.88;9.13;;;7.70;99.90;;;;;;4987492;28;20483;-70
2023/05/01 00:12:13;;;;;;;18.67;9.10;;;7.70;99.90;;;;;;4992165;28;20041;-70
2023/05/01 00:14:39;;;;;;;16.90;9.30;;;7.70;99.90;;;;;;4991313;28;20475;-69
2023/05/01 00:17:05;;;;;;;18.95;9.32;;;7.70;99.90;;;;;;4987664;28;20090;-69
2023/05/01 00:19:30;;;;;;;15.10;9.20;;;7.70;99.90;;;;;;4988300;28;20579;-72
2023/05/01 00:21:56;;;;;;;26.55;10.00;;;7.60;99.90;;;;;;4983665;28;20043;-68
2023/05/01 00:24:22;;;;;;;16.48;9.60;;;7.60;99.90;;;;;;4991390;28;20042;-69
2023/05/01 00:26:47;;;;;;;20.73;9.40;;;7.60;99.90;;;;;;4990316;28;20615;-69
2023/05/01 00:29:13;;;;;;;19.40;9.50;;;7.60;99.90;;;;;;4990140;28;20073;-68
2023/05/01 00:31:41;;;;;;;21.33;9.77;;;7.60;99.90;;;;;;4987569;28;20076;-69
2023/05/01 00:34:06;;;;;;;17.52;9.50;;;7.60;99.90;;;;;;4984157;28;20046;-69
2023/05/01 00:36:32;;;;;;;17.98;9.77;;;7.60;99.90;;;;;;4990469;28;20034;-69
2023/05/01 00:38:57;;;;;;;20.23;10.25;;;7.60;99.90;;;;;;4991494;28;20113;-69
2023/05/01 00:41:23;;;;;;;18.67;9.50;;;7.60;99.90;;;;;;4971678;28;20062;-69
2023/05/01 00:43:49;;;;;;;20.65;9.25;;;7.60;99.90;;;;;;4986831;28;20163;-69
2023/05/01 00:46:14;;;;;;;17.88;9.10;;;7.60;99.90;;;;;;4986993;28;20038;-69
2023/05/01 00:48:40;;;;;;;17.52;9.15;;;7.60;99.90;;;;;;4989836;28;20034;-70
2023/05/01 00:51:07;;;;;;;16.30;9.23;;;7.50;99.90;;;;;;4972514;28;20033;-71
2023/05/01 00:53:33;;;;;;;17.35;9.85;;;7.50;99.90;;;;;;4979708;28;20487;-70
2023/05/01 00:56:00;;;;;;;20.08;9.70;;;7.50;99.90;;;;;;5003531;28;20041;-69
2023/05/01 00:58:25;;;;;;;16.70;9.18;;;7.50;99.90;;;;;;4987333;28;20476;-70
2023/05/01 01:00:51;;;;;;;18.58;9.38;;;7.40;99.90;;;;;;4986742;28;20069;-70
2023/05/01 01:03:18;;;;;;;19.48;8.70;;;7.40;99.90;;;;;;4991767;28;20150;-71
2023/05/01 01:06:11;;;;;;;19.85;9.32;;;7.30;99.90;;;;;;4989728;28;20019;-69
2023/05/01 01:08:55;;;;;;;18.88;9.65;;;7.30;99.90;;;;;;4983245;28;20156;-70
2023/05/01 01:11:28;;;;;;;15.75;9.18;;;7.30;99.90;;;;;;4984876;28;20039;-68
2023/05/01 01:13:59;;;;;;;18.50;8.65;;;7.30;99.90;;;;;;4990044;28;20188;-69
2023/05/01 01:16:40;;;;;;;;;;;7.30;99.90;;;;;;4992072;28;20042;-69
2023/05/01 01:19:33;;;;;;;18.98;8.02;;;7.40;99.90;;;;;;4983364;28;19959;-69
2023/05/01 01:22:08;;;;;;;26.17;9.43;;;7.40;99.90;;;;;;4990115;28;20042;-69
2023/05/01 01:24:56;;;;;;;16.92;9.05;;;7.50;99.90;;;;;;4988844;28;20078;-72
2023/05/01 01:27:57;;;;;;;17.45;9.30;;;7.30;99.90;;;;;;4990224;28;20037;-69
2023/05/01 01:30:44;;;;;;;20.42;10.00;;;7.20;99.90;;;;;;4963966;28;20396;-68
2023/05/01 01:33:10;;;;;;;16.40;9.07;;;7.20;99.90;;;;;;4988739;28;20049;-69
2023/05/01 01:35:38;;;;;;;19.50;10.00;;;7.20;99.90;;;;;;4982769;28;20018;-70
2023/05/01 01:38:19;;;;;;;19.67;10.35;;;7.10;99.90;;;;;;4983166;28;20041;-69
2023/05/01 01:41:08;;;;;;;;;;;7.10;99.90;;;;;;4988804;28;20026;-69
2023/05/01 01:43:39;;;;;;;17.73;8.80;;;7.10;99.90;;;;;;4965538;28;19972;-71
2023/05/01 01:46:07;;;;;;;19.27;9.93;;;7.10;99.90;;;;;;4989047;28;20022;-70
2023/05/01 01:48:37;;;;;;;17.08;9.55;;;7.00;99.90;;;;;;4989746;28;20038;-73
2023/05/01 01:51:09;;;;;;;19.33;10.10;;;7.00;99.90;;;;;;4988980;28;20514;-70
2023/05/01 01:53:36;;;;;;;18.23;9.55;;;7.00;99.90;;;;;;4988724;28;20053;-72
2023/05/01 01:56:05;;;;;;;17.33;9.30;;;7.00;99.90;;;;;;4974313;28;20530;-69
2023/05/01 01:58:33;;;;;;;21.67;9.80;;;7.00;99.90;;;;;;4989055;28;20034;-71
2023/05/01 02:01:00;;;;;;;16.45;9.20;;;7.00;99.90;;;;;;4986855;28;20027;-68
2023/05/01 02:03:26;;;;;;;16.60;8.55;;;7.10;99.90;;;;;;4989753;28;20057;-69
2023/05/01 02:05:55;;;;;;;18.73;9.27;;;7.10;99.90;;;;;;4988146;28;20073;-69
2023/05/01 02:08:23;;;;;;;21.13;9.38;;;7.10;99.90;;;;;;4982266;28;20196;-69
2023/05/01 02:10:50;;;;;;;17.55;9.50;;;7.00;99.90;;;;;;4986411;28;20771;-69
2023/05/01 02:13:17;;;;;;;18.67;9.13;;;7.00;99.90;;;;;;4984527;28;20191;-69
2023/05/01 02:15:44;;;;;;;19.25;9.70;;;7.10;99.90;;;;;;4982823;28;20050;-69
2023/05/01 02:18:11;;;;;;;14.77;8.93;;;7.10;99.90;;;;;;4987011;28;20494;-69
2023/05/01 02:20:37;;;;;;;16.92;9.43;;;7.10;99.90;;;;;;4989120;28;20037;-71
2023/05/01 02:23:06;;;;;;;18.38;9.15;;;7.10;99.90;;;;;;4988515;28;20026;-70
2023/05/01 02:25:34;;;;;;;15.98;8.85;;;7.10;99.90;;;;;;4986279;28;20391;-71
2023/05/01 02:28:02;;;;;;;15.90;9.07;;;7.10;99.90;;;;;;4989137;28;20023;-70
2023/05/01 02:30:28;;;;;;;18.70;9.68;;;7.10;99.90;;;;;;4989098;28;20588;-71
2023/05/01 02:32:54;;;;;;;16.33;9.13;;;7.00;99.90;;;;;;4979176;28;20034;-70
2023/05/01 02:35:20;;;;;;;16.92;9.27;;;7.00;99.90;;;;;;4986606;28;20750;-73
2023/05/01 02:37:46;;;;;;;20.58;9.57;;;6.90;99.90;;;;;;4985556;28;20109;-70
2023/05/01 02:40:14;;;;;;;17.45;9.25;;;6.90;99.90;;;;;;4989215;28;20471;-69
2023/05/01 02:42:42;;;;;;;19.80;8.93;;;6.90;99.90;;;;;;4980908;28;20030;-71
2023/05/01 02:45:14;;;;;;;18.33;8.82;;;6.90;99.90;;;;;;4987713;28;20719;-69
2023/05/01 02:47:42;;;;;;;16.17;9.05;;;6.90;99.90;;;;;;4987894;28;20057;-69
2023/05/01 02:50:09;;;;;;;14.85;8.48;;;6.80;99.90;;;;;;4988622;28;20057;-70
2023/05/01 02:52:36;;;;;;;16.65;9.27;;;6.80;99.90;;;;;;4987427;28;20079;-71
2023/05/01 02:55:02;;;;;;;16.80;8.93;;;6.70;99.90;;;;;;4986893;28;20046;-70
2023/05/01 02:57:28;;;;;;;16.67;8.55;;;6.80;99.90;;;;;;4987540;28;20189;-71
2023/05/01 02:59:53;;;;;;;16.67;9.80;;;6.70;99.90;;;;;;4988884;28;20105;-69
2023/05/01 03:02:19;;;;;;;16.25;9.38;;;6.80;99.90;;;;;;4988027;28;20065;-69
2023/05/01 03:04:44;;;;;;;17.58;8.40;;;6.80;99.90;;;;;;4986676;28;20094;-71
2023/05/01 03:07:10;;;;;;;16.40;8.98;;;6.90;99.90;;;;;;4988220;28;20427;-69
2023/05/01 03:09:36;;;;;;;15.73;8.90;;;6.90;99.90;;;;;;4979543;28;20050;-72
2023/05/01 03:12:02;;;;;;;15.95;8.77;;;6.90;99.90;;;;;;4986860;28;20080;-69
2023/05/01 03:14:28;;;;;;;19.17;8.90;;;7.00;99.90;;;;;;4989186;28;20553;-69
2023/05/01 03:16:54;;;;;;;18.30;8.77;;;7.00;99.90;;;;;;4987082;28;20023;-68
2023/05/01 03:19:20;;;;;;;15.27;7.97;;;6.90;99.90;;;;;;4981424;28;20087;-69
2023/05/01 03:21:45;;;;;;;16.92;8.77;;;6.90;99.90;;;;;;4988075;28;20053;-69
2023/05/01 03:24:11;;;;;;;15.88;8.60;;;6.80;99.90;;;;;;4988092;28;20030;-69
2023/05/01 03:26:37;;;;;;;19.08;9.00;;;6.80;99.90;;;;;;4988394;28;20553;-74
2023/05/01 03:29:02;;;;;;;19.17;8.23;;;6.80;99.90;;;;;;4979070;28;20038;-70
2023/05/01 03:31:28;;;;;;;16.00;8.73;;;6.90;99.90;;;;;;4973850;28;20092;-70
2023/05/01 03:33:54;;;;;;;15.65;8.07;;;6.90;99.90;;;;;;4986258;28;20045;-72
2023/05/01 03:36:21;;;;;;;17.52;8.10;;;6.90;99.90;;;;;;4980123;28;20057;-69
2023/05/01 03:38:47;;;;;;;15.35;8.25;;;6.80;99.90;;;;;;4985711;28;20045;-69
2023/05/01 03:41:12;;;;;;;17.17;8.77;;;6.90;99.90;;;;;;4988858;28;20430;-69
2023/05/01 03:43:38;;;;;;;15.07;8.35;;;6.70;99.90;;;;;;4985658;28;20049;-72
2023/05/01 03:46:04;;;;;;;17.42;9.65;;;6.70;99.90;;;;;;4985013;28;20042;-69
2023/05/01 03:48:29;;;;;;;16.13;8.27;;;6.70;99.90;;;;;;4968643;28;20104;-69
2023/05/01 03:50:57;;;;;;;16.55;8.85;;;6.70;99.90;;;;;;4984372;28;20034;-70
2023/05/01 03:53:22;;;;;;;15.07;8.77;;;6.80;99.90;;;;;;4987821;28;20034;-70
2023/05/01 03:55:48;;;;;;;17.70;9.38;;;6.90;99.90;;;;;;4987213;28;20022;-70
2023/05/01 03:58:14;;;;;;;16.73;8.93;;;6.90;99.90;;;;;;4986510;28;20152;-70
2023/05/01 04:00:40;;;;;;;18.15;9.55;;;7.00;99.90;;;;;;4978606;28;20042;-73
2023/05/01 04:03:06;;;;;;;17.42;9.50;;;7.10;99.90;;;;;;4984440;28;20038;-71
2023/05/01 04:05:32;;;;;;;18.23;9.98;;;7.20;99.90;;;;;;4987262;28;20037;-70
2023/05/01 04:07:58;;;;;;;17.15;9.25;;;7.30;99.90;;;;;;4967830;28;20038;-70
2023/05/01 04:10:23;;;;;;;16.48;8.60;;;7.40;99.90;;;;;;4988794;28;20490;-70
2023/05/01 04:12:49;;;;;;;17.23;8.82;;;7.40;99.90;;;;;;4976699;28;20050;-69
2023/05/01 04:15:15;;;;;;;16.73;9.15;;;7.50;99.90;;;;;;4981880;28;20077;-70
2023/05/01 04:17:42;;;;;;;16.67;9.27;;;7.50;99.90;;;;;;4987357;28;20386;-72
2023/05/01 04:20:09;;;;;;;14.98;8.13;;;7.50;99.90;;;;;;4978975;28;20110;-70
2023/05/01 04:22:35;;;;;;;19.60;8.25;;;7.60;99.90;;;;;;4986191;28;20049;-70
2023/05/01 04:25:02;;;;;;;15.88;8.25;;;7.60;99.90;;;;;;4987511;28;20050;-70
2023/05/01 04:27:28;;;;;;;14.68;8.18;;;7.60;99.90;;;;;;4968764;28;20403;-70
2023/05/01 04:29:54;;;;;;;18.55;8.55;;;7.60;99.90;;;;;;4982529;28;20105;-69
2023/05/01 04:32:19;;;;;;;13.57;7.93;;;7.60;99.90;;;;;;4985508;28;20490;-69
2023/05/01 04:34:45;;;;;;;15.75;8.00;;;7.70;99.90;;;;;;4986556;28;20045;-72
2023/05/01 04:37:11;;;;;;;17.95;8.73;;;7.70;99.90;;;;;;4987518;28;20030;-69
2023/05/01 04:39:37;;;;;;;16.20;8.30;;;7.70;99.90;;;;;;4982912;28;20050;-69
2023/05/01 04:42:03;;;;;;;18.42;9.20;;;7.80;99.90;;;;;;4980804;28;20213;-68
2023/05/01 04:44:29;;;;;;;14.63;8.93;;;7.60;99.90;;;;;;4987718;28;20045;-69
2023/05/01 04:46:55;;;;;;;16.73;9.23;;;7.40;99.90;;;;;;4980960;28;20760;-70
2023/05/01 04:49:23;;;;;;;17.10;9.18;;;7.20;99.90;;;;;;4984894;28;20030;-70
2023/05/01 04:51:49;;;;;;;19.55;9.50;;;7.10;99.90;;;;;;4978310;28;20026;-68
2023/05/01 04:54:15;;;;;;;17.33;9.20;;;7.20;99.90;;;;;;4981452;28;20376;-69
2023/05/01 04:56:40;;;;;;;15.45;9.05;;;7.20;99.90;;;;;;4982267;28;20088;-70
2023/05/01 04:59:06;;;;;;;17.67;8.60;;;7.40;99.90;;;;;;4985465;28;20101;-70
2023/05/01 05:01:32;;;;;;;15.00;8.38;;;7.50;99.90;;;;;;4990671;28;20026;-73
2023/05/01 05:03:58;;;;;;;17.50;9.02;;;7.60;99.90;;;;;;4989259;28;20068;-70
2023/05/01 05:06:23;;;;;;;14.77;8.52;;;7.70;99.90;;;;;;4990574;28;20098;-70
2023/05/01 05:08:50;;;;;;;13.40;7.97;;;7.70;99.90;;;;;;4984285;28;20186;-70
2023/05/01 05:11:17;;;;;;;16.83;8.32;;;7.80;99.90;;;;;;4985421;28;20026;-70
2023/05/01 05:13:43;;;;;;;15.93;8.55;;;7.80;99.90;;;;;;4985548;28;20374;-73
2023/05/01 05:16:09;;;;;;;15.27;8.30;;;7.80;99.90;;;;;;4987801;28;20027;-70
2023/05/01 05:18:34;;;;;;;18.52;7.97;;;7.90;99.90;;;;;;4984610;28;20046;-71
2023/05/01 05:21:04;;;;;;;15.50;8.20;;;7.90;99.90;;;;;;4989691;28;20030;-71
2023/05/01 05:23:30;;;;;;;14.27;8.45;;;8.00;99.90;;;;;;4979612;28;20754;-70
2023/05/01 05:25:58;;;;;;;16.38;8.40;;;8.10;99.90;;;;;;4984465;28;20042;-70
2023/05/01 05:28:24;;;;;;;15.18;8.30;;;8.10;99.90;;;;;;4988691;28;20466;-69
2023/05/01 05:30:50;;;;;;;16.77;8.20;;;8.10;99.90;;;;;;4979650;28;20030;-69
2023/05/01 05:33:15;;;;;;;15.82;8.07;;;8.10;99.90;;;;;;4988820;28;20035;-69
2023/05/01 05:35:41;;;;;;;13.95;7.93;;;8.20;99.90;;;;;;4989131;28;20030;-71
2023/05/01 05:38:06;;;;;;;14.55;8.27;;;8.20;99.90;;;;;;4983970;28;20296;-69
2023/05/01 05:40:32;;;;;;;15.55;8.43;;;8.30;99.90;;;;;;4988249;28;20022;-69
2023/05/01 05:42:58;;;;;;;15.90;7.82;;;8.30;99.90;;;;;;4989920;28;20136;-69
2023/05/01 05:45:23;;;;;;;14.70;8.13;;;8.40;99.90;;;;;;4990461;28;20034;-68
2023/05/01 05:47:49;;;;;;;16.13;8.95;;;8.40;99.90;;;;;;4987761;28;20033;-72
2023/05/01 05:50:15;;;;;;;14.02;8.20;;;8.50;99.90;;;;;;4989600;28;20368;-69
2023/05/01 05:52:40;;;;;;;12.93;7.57;;;8.50;99.90;;;;;;4986848;28;20483;-68
2023/05/01 05:55:07;;;;;;;14.95;8.02;;;8.60;99.90;;;;;;4976346;28;20126;-70
2023/05/01 05:57:36;;;;;;;13.13;7.47;;;8.60;99.90;;;;;;4990404;28;20429;-70
2023/05/01 06:00:04;;;;;;;14.20;7.85;;;8.70;99.90;;;;;;4989550;28;20650;-70
2023/05/01 06:02:30;;;;;;;14.88;7.95;;;8.80;99.90;;;;;;4988962;28;20149;-68
2023/05/01 06:04:56;;;;;;;15.82;8.10;;;8.80;99.90;;;;;;4989399;28;20529;-70
2023/05/01 06:07:23;;;;;;;15.07;8.05;;;8.90;99.90;;;;;;4988636;28;20043;-70
2023/05/01 06:09:48;;;;;;;20.48;8.52;;;8.90;99.90;;;;;;4989830;28;20050;-73
2023/05/01 06:12:15;;;;;;;18.80;8.93;;;8.90;99.90;;;;;;4991627;28;20026;-68
2023/05/01 06:14:40;;;;;;;16.20;8.60;;;8.90;99.90;;;;;;4990110;28;20101;-71
2023/05/01 06:17:07;;;;;;;15.15;9.10;;;9.00;99.90;;;;;;4988109;28;20526;-70
2023/05/01 06:19:34;;;;;;;15.75;8.88;;;9.00;99.90;;;;;;4989507;28;20475;-69
2023/05/01 06:22:00;;;;;;;14.35;8.57;;;9.10;99.90;;;;;;4988358;28;20121;-70
2023/05/01 06:24:26;;;;;;;15.20;8.50;;;9.10;99.90;;;;;;4989284;28;20101;-70
2023/05/01 06:26:52;;;;;;;15.93;9.32;;;9.10;99.90;;;;;;4988617;28;20030;-72
2023/05/01 06:29:18;;;;;;;16.75;9.25;;;9.10;99.90;;;;;;4990506;28;20399;-69
2023/05/01 06:31:44;;;;;;;15.15;8.70;;;9.20;99.90;;;;;;4990087;28;20105;-69
2023/05/01 06:34:10;;;;;;;14.57;8.73;;;9.30;99.90;;;;;;4988999;28;20114;-69
2023/05/01 06:36:35;;;;;;;14.38;9.23;;;9.30;99.90;;;;;;4989099;28;20142;-72
2023/05/01 06:39:01;;;;;;;17.08;9.50;;;9.40;99.90;;;;;;4989608;28;20054;-71
2023/05/01 06:41:27;;;;;;;13.43;8.27;;;9.40;99.90;;;;;;4989667;28;20475;-70
2023/05/01 06:43:53;;;;;;;14.90;8.65;;;9.40;99.90;;;;;;4988567;28;20026;-72
2023/05/01 06:46:18;;;;;;;17.00;9.20;;;9.40;99.90;;;;;;4989002;28;20038;-72
2023/05/01 06:48:44;;;;;;;16.95;9.05;;;9.30;99.90;;;;;;4986572;28;20463;-69
2023/05/01 06:51:10;;;;;;;15.55;8.90;;;9.30;99.90;;;;;;4984300;28;20026;-69
2023/05/01 06:53:36;;;;;;;18.65;9.50;;;9.30;99.90;;;;;;4987239;28;20035;-71
2023/05/01 06:56:02;;;;;;;15.68;9.23;;;9.30;99.90;;;;;;4988403;28;20081;-72
2023/05/01 06:58:27;;;;;;;16.25;9.38;;;9.30;99.90;;;;;;4983826;28;20038;-74
2023/05/01 07:00:53;;;;;;;20.52;10.32;;;9.30;99.90;;;;;;4980825;28;20035;-77
2023/05/01 07:03:19;;;;;;;16.35;9.63;;;9.30;99.90;;;;;;4987904;28;20029;-74
2023/05/01 07:05:44;;;;;;;17.42;10.40;;;9.30;99.90;;;;;;4991541;28;20030;-72
2023/05/01 07:08:10;;;;;;;16.15;8.88;;;9.30;99.90;;;;;;4988461;28;20034;-73
2023/05/01 07:10:36;;;;;;;18.45;9.85;;;9.30;99.90;;;;;;4985057;28;20026;-72
2023/05/01 07:13:02;;;;;;;17.42;9.93;;;9.40;99.90;;;;;;4970336;28;20410;-73
2023/05/01 07:15:27;;;;;;;17.85;10.02;;;9.40;99.90;;;;;;4981245;28;20034;-73
2023/05/01 07:17:55;;;;;;;19.27;10.07;;;9.30;99.90;;;;;;4979887;28;20105;-76
2023/05/01 07:20:20;;;;;;;19.50;10.38;;;9.30;99.90;;;;;;4983866;28;20035;-73
2023/05/01 07:22:46;;;;;;;21.73;11.10;;;9.30;99.90;;;;;;4985070;28;20030;-73
2023/05/01 07:25:12;;;;;;;19.52;10.60;;;9.30;99.90;;;;;;4984740;28;20084;-72
2023/05/01 07:27:38;;;;;;;17.25;10.25;;;9.40;99.90;;;;;;4981589;28;20031;-75
2023/05/01 07:30:04;;;;;;;20.33;10.90;;;9.40;99.90;;;;;;4978247;28;20038;-71
2023/05/01 07:32:30;;;;;;;25.80;11.85;;;9.40;99.90;;;;;;4988810;28;20031;-71
2023/05/01 07:34:57;;;;;;;21.52;11.27;;;9.50;99.90;;;;;;4982303;28;20039;-72
2023/05/01 07:37:22;;;;;;;21.85;11.85;;;9.60;99.90;;;;;;4983986;28;20041;-72
2023/05/01 07:39:48;;;;;;;20.90;10.85;;;9.50;99.90;;;;;;4988185;28;20471;-74
2023/05/01 07:42:14;;;;;;;19.52;11.23;;;9.50;99.90;;;;;;4985243;28;20030;-71
2023/05/01 07:44:39;;;;;;;18.27;10.50;;;9.60;99.90;;;;;;4986980;28;20471;-71
2023/05/01 07:47:05;;;;;;;17.63;9.80;;;9.70;99.90;;;;;;4987934;28;20029;-74
2023/05/01 07:49:37;;;;;;;18.90;10.80;;;9.80;99.90;;;;;;4986805;28;20034;-71
2023/05/01 07:52:06;;;;;;;17.63;10.35;;;9.80;99.90;;;;;;4986731;28;20018;-71
2023/05/01 07:54:32;;;;;;;22.02;11.07;;;9.90;99.90;;;;;;4988438;28;20574;-74
2023/05/01 07:56:58;;;;;;;19.13;10.68;;;9.90;99.90;;;;;;4986547;28;20070;-72
2023/05/01 07:59:24;;;;;;;19.42;10.82;;;10.00;99.90;;;;;;4983143;28;20062;-71
2023/05/01 08:01:49;;;;;;;21.98;11.15;;;10.00;99.90;;;;;;4987198;28;20033;-72
2023/05/01 08:04:16;;;;;;;18.88;11.38;;;10.00;99.90;;;;;;4987647;28;20118;-74
2023/05/01 08:06:42;;;;;;;26.08;12.98;;;10.10;99.90;;;;;;4987126;28;20041;-74
2023/05/01 08:09:07;;;;;;;19.90;10.70;;;10.10;99.90;;;;;;4968213;28;20450;-72
2023/05/01 08:11:33;;;;;;;22.05;11.05;;;10.10;99.90;;;;;;4989922;28;20027;-72
2023/05/01 08:13:58;;;;;;;17.83;10.18;;;10.30;99.90;;;;;;4983522;28;20045;-73
2023/05/01 08:16:24;;;;;;;18.33;10.27;;;10.30;99.90;;;;;;4983646;28;20022;-71
2023/05/01 08:18:50;;;;;;;14.95;9.45;;;10.30;99.90;;;;;;4988193;28;20030;-72
2023/05/01 08:21:15;;;;;;;21.42;10.52;;;10.40;99.90;;;;;;4970244;28;20018;-72
2023/05/01 08:23:41;;;;;;;15.93;9.55;;;10.40;99.90;;;;;;4987943;28;20555;-75
2023/05/01 08:26:07;;;;;;;18.15;9.63;;;10.40;99.90;;;;;;4994652;28;20033;-73
2023/05/01 08:28:36;;;;;;;22.77;9.90;;;10.40;99.90;;;;;;4984806;28;20045;-72
2023/05/01 08:31:02;;;;;;;17.67;9.73;;;10.40;99.90;;;;;;4986993;28;20038;-77
2023/05/01 08:33:28;;;;;;;17.42;9.63;;;10.40;99.90;;;;;;4987279;28;20039;-73
2023/05/01 08:35:53;;;;;;;19.42;9.85;;;10.40;99.90;;;;;;4990262;28;20034;-76
2023/05/01 08:38:19;;;;;;;17.63;9.63;;;10.30;99.90;;;;;;4988765;28;20116;-71
2023/05/01 08:40:52;;;;;;;16.92;9.93;;;10.30;99.90;;;;;;4985925;28;20031;-72
2023/05/01 08:43:18;;;;;;;17.90;9.77;;;10.40;99.90;;;;;;4968009;28;20599;-70
2023/05/01 08:45:46;;;;;;;17.33;9.80;;;10.50;99.90;;;;;;4990931;28;20065;-74
2023/05/01 08:48:15;;;;;;;17.83;9.35;;;10.60;99.90;;;;;;4988456;28;20061;-77
2023/05/01 08:50:45;;;;;;;17.77;10.45;;;10.60;99.90;;;;;;4984169;28;20471;-73
2023/05/01 08:53:14;;;;;;;20.95;10.18;;;10.70;99.90;;;;;;4990540;28;20035;-75
2023/05/01 08:55:46;;;;;;;20.83;10.50;;;10.60;99.90;;;;;;4990277;28;20073;-75
2023/05/01 08:58:13;;;;;;;21.00;10.73;;;10.60;99.90;;;;;;4990524;28;20065;-74
2023/05/01 09:00:40;;;;;;;21.58;11.13;;;10.60;99.90;;;;;;4991409;28;20037;-73
2023/05/01 09:03:10;;;;;;;20.92;11.35;;;10.60;99.90;;;;;;4978562;28;20471;-74
2023/05/01 09:05:36;;;;;;;19.92;10.70;;;10.80;99.90;;;;;;4991080;28;20034;-74
2023/05/01 09:08:02;;;;;;;18.17;10.90;;;10.80;99.90;;;;;;4990250;28;20474;-74
2023/05/01 09:10:29;;;;;;;20.38;10.40;;;10.80;99.90;;;;;;4991207;28;20061;-74
2023/05/01 09:12:59;;;;;;;18.33;10.40;;;10.90;99.90;;;;;;4991126;28;20030;-75
2023/05/01 09:15:26;;;;;;;15.75;9.73;;;11.00;99.90;;;;;;4990979;28;20093;-75
2023/05/01 09:17:53;;;;;;;19.20;10.68;;;11.20;99.90;;;;;;4991235;28;20038;-76
2023/05/01 09:20:19;;;;;;;19.33;10.57;;;11.40;99.90;;;;;;4972093;28;20030;-75
2023/05/01 09:22:45;;;;;;;18.98;10.52;;;11.50;99.90;;;;;;4991394;28;20022;-74
2023/05/01 09:25:10;;;;;;;21.13;10.00;;;11.70;99.90;;;;;;4990179;28;20034;-75
2023/05/01 09:27:37;;;;;;;16.25;10.35;;;11.70;99.90;;;;;;4990087;28;20033;-74
2023/05/01 09:30:05;;;;;;;18.73;10.27;;;11.60;99.90;;;;;;4990087;28;20030;-75
2023/05/01 09:32:31;;;;;;;16.08;10.07;;;11.70;99.90;;;;;;4982369;28;20386;-74
2023/05/01 09:35:13;;;;;;;16.38;9.95;;;11.80;99.90;;;;;;4991810;28;20050;-74
2023/05/01 09:37:40;;;;;;;16.50;9.82;;;11.90;99.90;;;;;;4991260;28;20062;-76
2023/05/01 09:40:06;;;;;;;21.33;10.57;;;12.00;99.90;;;;;;4989922;28;20487;-75
2023/05/01 09:42:33;;;;;;;15.68;10.23;;;12.20;99.90;;;;;;4972250;28;20536;-76
2023/05/01 09:45:03;;;;;;;16.52;9.75;;;12.10;99.90;;;;;;4986024;28;20042;-76
2023/05/01 09:47:30;;;;;;;16.20;10.00;;;12.40;99.90;;;;;;4990484;28;20042;-75
2023/05/01 09:49:56;;;;;;;15.63;9.00;;;12.40;99.90;;;;;;4991014;28;20035;-75
2023/05/01 09:52:34;;;;;;;17.17;9.82;;;12.60;99.90;;;;;;4992979;28;20054;-74
2023/05/01 09:55:17;;;;;;;17.45;9.38;;;12.90;99.90;;;;;;4990678;28;20042;-75
2023/05/01 09:57:45;;;;;;;14.52;8.73;;;12.90;99.90;;;;;;4982923;28;20062;-74
2023/05/01 10:00:12;;;;;;;16.10;9.93;;;12.90;99.90;;;;;;4989725;28;20145;-74
2023/05/01 10:02:40;;;;;;;18.05;10.00;;;12.90;99.90;;;;;;4990417;28;20034;-75
2023/05/01 10:05:06;;;;;;;19.40;10.27;;;12.80;99.90;;;;;;4990062;28;20510;-75
2023/05/01 10:07:32;;;;;;;15.82;9.30;;;12.60;99.90;;;;;;4990260;28;20056;-75
2023/05/01 10:09:58;;;;;;;17.73;9.73;;;12.70;99.90;;;;;;4994209;28;20474;-75
2023/05/01 10:12:29;;;;;;;17.90;10.45;;;12.80;99.90;;;;;;4989708;28;20030;-74
2023/05/01 10:14:55;;;;;;;;;;;12.90;99.90;;;;;;4990522;28;20038;-74
2023/05/01 10:17:21;;;;;;;16.52;9.93;;;13.00;99.90;;;;;;4989684;28;20465;-74
2023/05/01 10:19:48;;;;;;;17.70;9.65;;;13.20;99.90;;;;;;4990038;28;20026;-75
2023/05/01 10:22:15;;;;;;;15.85;9.15;;;13.20;99.90;;;;;;4971996;28;20467;-73
2023/05/01 10:24:45;;;;;;;15.85;9.52;;;13.30;99.90;;;;;;4990038;28;20120;-77
2023/05/01 10:27:12;;;;;;;17.55;9.93;;;13.30;99.90;;;;;;4995125;28;20474;-76
2023/05/01 10:29:40;;;;;;;17.58;9.77;;;13.40;99.90;;;;;;4989984;28;20030;-74
2023/05/01 10:32:08;;;;;;;17.33;10.40;;;13.50;99.90;;;;;;4989047;28;20023;-75
2023/05/01 10:34:37;;;;;;;16.67;9.52;;;13.50;99.90;;;;;;4989844;28;20120;-76
2023/05/01 10:37:38;;;;;;;17.70;9.80;;;13.40;99.90;;;;;;4981841;28;20030;-76
2023/05/01 10:40:37;;;;;;;17.00;9.15;;;13.30;99.90;;;;;;4988397;28;20050;-76
2023/05/01 10:43:24;;;;;;;14.93;9.63;;;13.40;99.90;;;;;;4990914;28;20026;-77
2023/05/01 10:45:51;;;;;;;15.85;9.20;;;13.40;99.90;;;;;;4991633;28;20034;-76
2023/05/01 10:48:36;;;;;;;16.63;9.52;;;13.40;99.90;;;;;;4989086;28;20050;-75
2023/05/01 10:51:19;;;;;;;15.50;9.65;;;13.50;99.90;;;;;;4989360;28;20034;-76
2023/05/01 10:53:46;;;;;;;16.55;9.85;;;13.60;99.90;;;;;;4986318;28;20045;-75
2023/05/01 10:56:24;;;;;;;19.52;10.07;;;13.40;99.90;;;;;;4963356;28;20554;-76
2023/05/01 10:58:52;;;;;;;19.25;10.18;;;13.50;99.90;;;;;;4989356;28;20018;-77
2023/05/01 11:01:27;;;;;;;16.02;9.80;;;13.70;99.90;;;;;;4995043;28;20732;-76
2023/05/01 11:03:56;;;;;;;19.13;9.70;;;13.90;99.90;;;;;;4989386;28;20049;-75
2023/05/01 11:06:22;;;;;;;15.52;9.77;;;14.10;99.90;;;;;;4988724;28;20074;-76
2023/05/01 11:08:48;;;;;;;18.75;10.50;;;14.10;99.90;;;;;;4989281;28;20050;-75
2023/05/01 11:11:20;;;;;;;20.20;10.55;;;14.20;99.90;;;;;;4988222;28;20026;-74
2023/05/01 11:13:55;;;;;;;15.30;9.63;;;14.60;99.90;;;;;;4971603;28;20129;-75
2023/05/01 11:16:40;;;;;;;16.30;9.85;;;14.60;99.90;;;;;;4980882;28;20093;-76
2023/05/01 11:19:21;;;;;;;15.32;9.82;;;14.40;99.90;;;;;;4997288;28;20030;-76
2023/05/01 11:21:48;;;;;;;16.58;9.63;;;14.00;99.90;;;;;;4989161;28;20026;-78
2023/05/01 11:24:13;;;;;;;18.52;11.27;;;14.00;99.90;;;;;;4987802;28;20058;-73
2023/05/01 11:26:41;;;;;;;17.38;9.95;;;14.10;99.90;;;;;;4989154;28;20064;-75
2023/05/01 11:29:11;;;;;;;19.90;10.00;;;14.50;99.90;;;;;;4988833;28;20616;-75
2023/05/01 11:31:38;;;;;;;15.93;9.18;;;14.70;99.90;;;;;;4988880;28;20708;-76
2023/05/01 11:34:07;;;;;;;16.48;9.63;;;14.90;99.90;;;;;;4990311;28;20049;-76
2023/05/01 11:36:49;;;;;;;19.17;8.43;;;15.20;99.90;;;;;;4988149;28;20030;-75
2023/05/01 11:39:18;;;;;;;14.25;8.63;;;15.50;99.90;;;;;;4984654;28;20042;-75
2023/05/01 11:41:45;;;;;;;14.80;8.43;;;15.80;99.90;;;;;;4987231;28;20035;-74
2023/05/01 11:44:13;;;;;;;16.60;9.50;;;16.10;99.90;;;;;;4984893;28;20514;-74
2023/05/01 11:46:39;;;;;;;15.63;9.52;;;16.50;99.90;;;;;;4980310;28;20062;-76
2023/05/01 11:49:05;;;;;;;13.50;8.27;;;16.30;99.90;;;;;;4987844;28;20791;-74
2023/05/01 11:51:31;;;;;;;15.43;9.90;;;16.00;99.90;;;;;;4991263;28;20041;-76
2023/05/01 11:54:14;;;;;;;14.55;8.98;;;15.80;99.90;;;;;;4981209;28;20043;-76
2023/05/01 11:56:41;;;;;;;15.05;9.88;;;15.70;99.90;;;;;;4984694;28;20058;-75
2023/05/01 11:59:11;;;;;;;15.95;9.10;;;15.30;99.90;;;;;;4983745;28;20045;-77
2023/05/01 12:01:39;;;;;;;14.88;9.02;;;15.00;99.90;;;;;;4979495;28;20030;-75
2023/05/01 12:04:07;;;;;;;15.98;9.32;;;14.90;99.90;;;;;;4986868;28;20066;-74
2023/05/01 12:06:45;;;;;;;19.35;8.88;;;15.10;99.90;;;;;;4986353;28;20026;-74
2023/05/01 12:09:19;;;;;;;16.60;9.48;;;15.30;99.90;;;;;;4987265;28;20111;-75
2023/05/01 12:11:46;;;;;;;19.63;8.65;;;15.30;99.90;;;;;;4959687;28;20026;-75
2023/05/01 12:14:17;;;;;;;13.15;9.02;;;15.30;99.90;;;;;;4982494;28;20034;-74
2023/05/01 12:16:43;;;;;;;;;;;15.40;99.90;;;;;;4986701;28;20494;-74
2023/05/01 12:19:12;;;;;;;14.48;8.73;;;15.60;99.90;;;;;;4985511;28;19922;-77
2023/05/01 12:21:37;;;;;;;13.15;8.55;;;15.80;99.90;;;;;;4978997;28;20035;-75
2023/05/01 12:24:11;;;;;;;12.77;8.48;;;16.00;99.90;;;;;;4985489;28;20037;-75
2023/05/01 12:26:37;;;;;;;12.18;8.35;;;16.10;99.90;;;;;;4976886;28;20096;-75
2023/05/01 12:29:10;;;;;;;14.13;8.80;;;15.90;99.90;;;;;;4987035;28;20434;-75
2023/05/01 12:31:44;;;;;;;13.20;8.32;;;15.70;99.90;;;;;;4987085;28;20030;-74
2023/05/01 12:34:10;;;;;;;13.68;8.93;;;15.30;99.90;;;;;;5002265;28;20038;-76
2023/05/01 12:36:36;;;;;;;14.82;8.70;;;15.10;99.90;;;;;;4978839;28;20084;-77
2023/05/01 12:39:09;;;;;;;13.13;8.50;;;15.20;99.90;;;;;;4987649;28;20054;-77
2023/05/01 12:41:43;;;;;;;18.80;9.07;;;15.10;99.90;;;;;;4987339;28;20021;-74
2023/05/01 12:44:18;;;;;;;12.95;8.50;;;15.30;99.90;;;;;;4986551;28;20073;-74
2023/05/01 12:46:46;;;;;;;12.95;8.18;;;15.40;99.90;;;;;;4977124;28;20463;-75